Time,TemperatureF,DewpointF,PressureIn,WindDirection,WindDirectionDegrees,WindSpeedMPH,WindSpeedGustMPH,Humidity,HourlyPrecipIn,Conditions,Clouds,dailyrainin,SoftwareType,DateUTC
2013-04-11 00:00:00,61.6,58.9,29.89,SE,127,0.0,5.0,91,0.00,,,0.00,WeatherCatV1.02B4,2013-04-11 04:00:00,
2013-04-11 00:01:00,61.6,58.9,29.89,SE,127,0.0,0.0,91,0.00,,,0.00,WeatherCatV1.02B4,2013-04-11 04:01:00,
2013-04-11 00:06:00,61.5,59.2,29.89,SE,127,0.0,0.0,92,0.00,,,0.00,WeatherCatV1.02B4,2013-04-11 04:06:00,
2013-04-11 00:11:00,61.5,58.8,29.90,SE,127,0.0,0.0,91,0.00,,,0.00,WeatherCatV1.02B4,2013-04-11 04:11:00,
2013-04-11 00:16:00,61.5,59.2,29.90,SE,127,0.0,0.0,92,0.00,,,0.00,WeatherCatV1.02B4,2013-04-11 04:16:00,
2013-04-11 00:21:00,61.5,59.2,29.91,SE,127,0.0,0.0,92,0.00,,,0.00,WeatherCatV1.02B4,2013-04-11 04:21:00,
2013-04-11 00:26:00,61.4,59.1,29.91,SE,127,0.0,0.0,92,0.00,,,0.00,WeatherCatV1.02B4,2013-04-11 04:26:00,
2013-04-11 00:31:00,61.5,59.2,29.90,SE,127,0.0,0.0,92,0.00,,,0.00,WeatherCatV1.02B4,2013-04-11 04:31:00,
2013-04-11 00:36:00,61.4,59.1,29.90,SE,127,0.0,0.0,92,0.00,,,0.00,WeatherCatV1.02B4,2013-04-11 04:36:00,
2013-04-11 00:41:00,61.4,59.1,29.90,SE,127,0.0,0.0,92,0.00,,,0.00,WeatherCatV1.02B4,2013-04-11 04:41:00,
2013-04-11 00:46:00,61.4,59.4,29.90,SE,127,0.0,0.0,93,0.00,,,0.00,WeatherCatV1.02B4,2013-04-11 04:46:00,
2013-04-11 00:51:00,61.5,59.2,29.89,SE,126,0.0,4.0,92,0.00,,,0.00,WeatherCatV1.02B4,2013-04-11 04:51:00,
2013-04-11 00:56:00,61.4,59.4,29.89,SE,126,0.0,0.0,93,0.00,,,0.00,WeatherCatV1.02B4,2013-04-11 04:56:00,
2013-04-11 01:01:00,61.4,59.4,29.89,SE,127,0.0,1.0,93,0.00,,,0.00,WeatherCatV1.02B4,2013-04-11 05:01:00,
2013-04-11 01:06:00,61.4,59.4,29.90,SE,127,0.0,0.0,93,0.00,,,0.00,WeatherCatV1.02B4,2013-04-11 05:06:00,
2013-04-11 01:11:00,61.3,59.3,29.90,SE,127,0.0,0.0,93,0.00,,,0.00,WeatherCatV1.02B4,2013-04-11 05:11:00,
2013-04-11 01:16:00,61.3,59.3,29.91,SE,127,0.0,0.0,93,0.00,,,0.00,WeatherCatV1.02B4,2013-04-11 05:16:00,
2013-04-11 01:21:00,61.3,59.3,29.90,SE,127,0.0,0.0,93,0.00,,,0.00,WeatherCatV1.02B4,2013-04-11 05:21:00,
2013-04-11 01:26:00,61.3,59.3,29.90,SE,127,0.0,0.0,93,0.00,,,0.00,WeatherCatV1.02B4,2013-04-11 05:26:00,
2013-04-11 01:31:00,61.2,59.2,29.90,SE,127,0.0,0.0,93,0.00,,,0.00,WeatherCatV1.02B4,2013-04-11 05:31:00,
2013-04-11 01:36:00,61.2,59.2,29.89,SE,127,0.0,0.0,93,0.00,,,0.00,WeatherCatV1.02B4,2013-04-11 05:36:00,
2013-04-11 01:41:00,61.2,59.2,29.89,SE,127,0.0,0.0,93,0.00,,,0.00,WeatherCatV1.02B4,2013-04-11 05:41:00,
2013-04-11 01:46:00,61.1,59.1,29.88,SE,127,0.0,0.0,93,0.00,,,0.00,WeatherCatV1.02B4,2013-04-11 05:46:00,
2013-04-11 01:51:00,61.0,59.0,29.87,SE,127,0.0,0.0,93,0.00,,,0.00,WeatherCatV1.02B4,2013-04-11 05:51:00,
2013-04-11 01:57:00,60.9,58.9,29.87,SE,127,0.0,0.0,93,0.00,,,0.00,WeatherCatV1.02B4,2013-04-11 05:57:00,
2013-04-11 02:02:00,60.8,58.8,29.86,SE,127,0.0,0.0,93,0.00,,,0.00,WeatherCatV1.02B4,2013-04-11 06:02:00,
2013-04-11 02:07:00,60.9,58.9,29.85,SE,127,0.0,0.0,93,0.00,,,0.00,WeatherCatV1.02B4,2013-04-11 06:07:00,
2013-04-11 02:12:00,61.0,59.0,29.84,SE,127,0.0,0.0,93,0.00,,,0.00,WeatherCatV1.02B4,2013-04-11 06:12:00,
2013-04-11 02:17:00,61.0,59.0,29.83,SE,127,0.0,0.0,93,0.00,,,0.00,WeatherCatV1.02B4,2013-04-11 06:17:00,
2013-04-11 02:22:00,61.2,59.2,29.83,SSE,161,4.0,4.0,93,0.00,,,0.00,WeatherCatV1.02B4,2013-04-11 06:22:00,
2013-04-11 02:27:00,61.2,59.5,29.82,SE,139,5.0,5.0,94,0.00,,,0.00,WeatherCatV1.02B4,2013-04-11 06:27:00,
2013-04-11 02:32:00,61.2,59.5,29.82,SE,137,4.0,5.0,94,0.00,,,0.00,WeatherCatV1.02B4,2013-04-11 06:32:00,
2013-04-11 02:37:00,61.3,59.6,29.82,SE,134,0.0,0.0,94,0.00,,,0.00,WeatherCatV1.02B4,2013-04-11 06:37:00,
2013-04-11 02:42:00,61.3,59.6,29.81,SE,145,4.0,5.0,94,0.00,,,0.00,WeatherCatV1.02B4,2013-04-11 06:42:00,
2013-04-11 02:47:00,61.3,59.6,29.81,SSE,155,2.0,6.0,94,0.00,,,0.00,WeatherCatV1.02B4,2013-04-11 06:47:00,
2013-04-11 02:52:00,61.3,59.6,29.81,SSE,151,0.0,5.0,94,0.00,,,0.00,WeatherCatV1.02B4,2013-04-11 06:52:00,
2013-04-11 02:57:00,61.3,59.6,29.81,SE,141,3.0,6.0,94,0.00,,,0.00,WeatherCatV1.02B4,2013-04-11 06:57:00,
2013-04-11 03:02:00,61.3,59.6,29.82,SSW,209,0.0,0.0,94,0.00,,,0.00,WeatherCatV1.02B4,2013-04-11 07:02:00,
2013-04-11 03:07:00,61.3,59.6,29.82,SSE,166,0.0,0.0,94,0.00,,,0.00,WeatherCatV1.02B4,2013-04-11 07:07:00,
2013-04-11 03:12:00,61.3,59.6,29.82,SSE,166,0.0,0.0,94,0.00,,,0.00,WeatherCatV1.02B4,2013-04-11 07:12:00,
2013-04-11 03:17:00,61.3,59.6,29.82,SSE,166,0.0,0.0,94,0.00,,,0.00,WeatherCatV1.02B4,2013-04-11 07:17:00,
2013-04-11 03:22:00,61.2,59.5,29.82,SSE,166,0.0,0.0,94,0.00,,,0.00,WeatherCatV1.02B4,2013-04-11 07:22:00,
2013-04-11 03:27:00,61.2,59.5,29.82,SSE,166,0.0,0.0,94,0.00,,,0.00,WeatherCatV1.02B4,2013-04-11 07:27:00,
2013-04-11 03:32:00,61.0,59.3,29.82,SSE,166,0.0,0.0,94,0.00,,,0.00,WeatherCatV1.02B4,2013-04-11 07:32:00,
2013-04-11 03:37:00,60.9,59.2,29.83,SSE,166,0.0,0.0,94,0.00,,,0.00,WeatherCatV1.02B4,2013-04-11 07:37:00,
2013-04-11 03:42:00,60.6,58.9,29.84,SSE,166,0.0,0.0,94,0.00,,,0.00,WeatherCatV1.02B4,2013-04-11 07:42:00,
2013-04-11 03:47:00,60.4,58.4,29.84,SSE,166,0.0,0.0,93,0.00,,,0.00,WeatherCatV1.02B4,2013-04-11 07:47:00,
2013-04-11 03:52:00,60.3,58.6,29.84,SSE,166,0.0,0.0,94,0.00,,,0.00,WeatherCatV1.02B4,2013-04-11 07:52:00,
2013-04-11 03:57:00,60.1,58.1,29.84,SSE,166,0.0,0.0,93,0.00,,,0.00,WeatherCatV1.02B4,2013-04-11 07:57:00,
2013-04-11 04:02:00,60.0,58.3,29.84,SSE,166,0.0,0.0,94,0.00,,,0.00,WeatherCatV1.02B4,2013-04-11 08:02:00,
2013-04-11 04:07:00,59.9,57.9,29.84,SSE,166,0.0,0.0,93,0.00,,,0.00,WeatherCatV1.02B4,2013-04-11 08:07:00,
2013-04-11 04:12:00,59.7,58.0,29.85,SSE,166,0.0,0.0,94,0.00,,,0.00,WeatherCatV1.02B4,2013-04-11 08:12:00,
2013-04-11 04:17:00,59.7,58.0,29.85,SSE,166,0.0,0.0,94,0.00,,,0.00,WeatherCatV1.02B4,2013-04-11 08:17:00,
2013-04-11 04:22:00,59.7,58.0,29.86,SSE,166,0.0,0.0,94,0.00,,,0.00,WeatherCatV1.02B4,2013-04-11 08:22:00,
2013-04-11 04:27:00,59.7,58.0,29.86,SSE,166,0.0,0.0,94,0.00,,,0.00,WeatherCatV1.02B4,2013-04-11 08:27:00,
2013-04-11 04:32:00,59.7,58.0,29.85,SSE,166,0.0,0.0,94,0.00,,,0.00,WeatherCatV1.02B4,2013-04-11 08:32:00,
2013-04-11 04:37:00,59.7,58.0,29.86,SSE,166,0.0,0.0,94,0.00,,,0.00,WeatherCatV1.02B4,2013-04-11 08:37:00,
2013-04-11 04:42:00,59.8,58.1,29.86,SSE,166,0.0,0.0,94,0.00,,,0.00,WeatherCatV1.02B4,2013-04-11 08:42:00,
2013-04-11 04:47:00,59.9,58.2,29.87,SSE,166,0.0,0.0,94,0.00,,,0.00,WeatherCatV1.02B4,2013-04-11 08:47:00,
2013-04-11 04:52:00,60.0,58.3,29.87,SSE,166,0.0,0.0,94,0.00,,,0.00,WeatherCatV1.02B4,2013-04-11 08:52:00,
2013-04-11 04:57:00,60.0,58.3,29.88,SSE,166,0.0,0.0,94,0.00,,,0.00,WeatherCatV1.02B4,2013-04-11 08:57:00,
2013-04-11 05:02:00,60.0,58.3,29.88,SSE,166,0.0,0.0,94,0.00,,,0.00,WeatherCatV1.02B4,2013-04-11 09:02:00,
2013-04-11 05:07:00,60.0,58.3,29.88,SSE,166,0.0,0.0,94,0.00,,,0.00,WeatherCatV1.02B4,2013-04-11 09:07:00,
2013-04-11 05:12:00,59.9,58.2,29.88,SSE,166,0.0,0.0,94,0.00,,,0.00,WeatherCatV1.02B4,2013-04-11 09:12:00,
2013-04-11 05:17:00,59.8,58.1,29.88,SSE,166,0.0,0.0,94,0.00,,,0.00,WeatherCatV1.02B4,2013-04-11 09:17:00,
2013-04-11 05:22:00,59.7,58.0,29.89,SSE,166,0.0,0.0,94,0.00,,,0.00,WeatherCatV1.02B4,2013-04-11 09:22:00,
2013-04-11 05:27:00,59.6,57.9,29.88,SSE,166,0.0,0.0,94,0.00,,,0.00,WeatherCatV1.02B4,2013-04-11 09:27:00,
2013-04-11 05:32:00,59.6,57.9,29.89,SSE,166,0.0,0.0,94,0.00,,,0.00,WeatherCatV1.02B4,2013-04-11 09:32:00,
2013-04-11 05:37:00,59.5,57.8,29.88,SSE,166,0.0,0.0,94,0.00,,,0.00,WeatherCatV1.02B4,2013-04-11 09:37:00,
2013-04-11 05:42:00,59.4,57.7,29.89,SSE,166,0.0,0.0,94,0.00,,,0.00,WeatherCatV1.02B4,2013-04-11 09:42:00,
2013-04-11 05:47:00,59.3,57.6,29.89,SSE,166,0.0,0.0,94,0.00,,,0.00,WeatherCatV1.02B4,2013-04-11 09:47:00,
2013-04-11 05:52:00,59.2,57.5,29.89,SSE,166,0.0,0.0,94,0.00,,,0.00,WeatherCatV1.02B4,2013-04-11 09:52:00,
2013-04-11 05:57:00,58.9,57.2,29.89,SSE,166,0.0,0.0,94,0.00,,,0.00,WeatherCatV1.02B4,2013-04-11 09:57:00,
2013-04-11 06:02:00,58.7,57.0,29.90,SSE,166,0.0,0.0,94,0.00,,,0.00,WeatherCatV1.02B4,2013-04-11 10:02:00,
2013-04-11 06:07:00,58.6,56.9,29.90,SSE,166,0.0,0.0,94,0.00,,,0.00,WeatherCatV1.02B4,2013-04-11 10:07:00,
2013-04-11 06:12:00,58.4,56.7,29.91,SSE,166,0.0,0.0,94,0.00,,,0.00,WeatherCatV1.02B4,2013-04-11 10:12:00,
2013-04-11 06:17:00,58.4,56.7,29.91,SSE,166,0.0,0.0,94,0.00,,,0.00,WeatherCatV1.02B4,2013-04-11 10:17:00,
2013-04-11 06:22:00,58.5,56.8,29.91,SSE,166,0.0,0.0,94,0.00,,,0.00,WeatherCatV1.02B4,2013-04-11 10:22:00,
2013-04-11 06:27:00,58.5,56.8,29.91,SSE,166,0.0,0.0,94,0.00,,,0.00,WeatherCatV1.02B4,2013-04-11 10:27:00,
2013-04-11 06:32:00,58.4,56.7,29.91,SSE,166,0.0,0.0,94,0.00,,,0.00,WeatherCatV1.02B4,2013-04-11 10:32:00,
2013-04-11 06:37:00,58.3,56.6,29.91,SSE,166,0.0,0.0,94,0.00,,,0.00,WeatherCatV1.02B4,2013-04-11 10:37:00,
2013-04-11 06:42:00,58.2,56.5,29.91,SSE,166,0.0,0.0,94,0.00,,,0.00,WeatherCatV1.02B4,2013-04-11 10:42:00,
2013-04-11 06:47:00,58.0,56.3,29.91,SSE,168,0.0,0.0,94,0.00,,,0.00,WeatherCatV1.02B4,2013-04-11 10:47:00,
2013-04-11 06:52:00,58.0,56.3,29.91,SSE,168,0.0,0.0,94,0.00,,,0.00,WeatherCatV1.02B4,2013-04-11 10:52:00,
2013-04-11 06:57:00,58.0,56.3,29.91,SSE,168,0.0,0.0,94,0.00,,,0.00,WeatherCatV1.02B4,2013-04-11 10:57:00,
2013-04-11 07:02:00,58.0,56.3,29.91,SSE,168,0.0,0.0,94,0.00,,,0.00,WeatherCatV1.02B4,2013-04-11 11:02:00,
2013-04-11 07:07:00,58.0,56.3,29.91,SSE,168,0.0,0.0,94,0.00,,,0.00,WeatherCatV1.02B4,2013-04-11 11:07:00,
2013-04-11 07:12:00,58.1,56.4,29.91,SSE,168,0.0,0.0,94,0.00,,,0.00,WeatherCatV1.02B4,2013-04-11 11:12:00,
2013-04-11 07:17:00,58.2,56.8,29.91,SSE,168,0.0,0.0,95,0.00,,,0.00,WeatherCatV1.02B4,2013-04-11 11:17:00,
2013-04-11 07:22:00,58.5,56.8,29.91,SSE,168,0.0,0.0,94,0.00,,,0.00,WeatherCatV1.02B4,2013-04-11 11:22:00,
2013-04-11 07:27:00,58.7,57.3,29.90,SSE,168,0.0,0.0,95,0.00,,,0.00,WeatherCatV1.02B4,2013-04-11 11:27:00,
2013-04-11 07:32:00,59.1,57.4,29.91,SSE,168,0.0,0.0,94,0.00,,,0.00,WeatherCatV1.02B4,2013-04-11 11:32:00,
2013-04-11 07:37:00,59.6,58.2,29.91,SSE,168,0.0,0.0,95,0.00,,,0.00,WeatherCatV1.02B4,2013-04-11 11:37:00,
2013-04-11 07:42:00,60.0,58.6,29.92,SSE,168,0.0,0.0,95,0.00,,,0.00,WeatherCatV1.02B4,2013-04-11 11:42:00,
2013-04-11 07:47:00,60.5,59.1,29.91,SSE,168,0.0,0.0,95,0.00,,,0.00,WeatherCatV1.02B4,2013-04-11 11:47:00,
2013-04-11 07:52:00,60.8,59.4,29.92,SSE,168,0.0,0.0,95,0.00,,,0.00,WeatherCatV1.02B4,2013-04-11 11:52:00,
2013-04-11 07:57:00,60.9,59.5,29.92,SSE,168,0.0,0.0,95,0.00,,,0.00,WeatherCatV1.02B4,2013-04-11 11:57:00,
2013-04-11 08:02:00,61.0,59.6,29.92,SSE,168,0.0,0.0,95,0.00,,,0.00,WeatherCatV1.02B4,2013-04-11 12:02:00,
2013-04-11 08:07:00,61.1,59.7,29.92,SSE,168,0.0,0.0,95,0.00,,,0.00,WeatherCatV1.02B4,2013-04-11 12:07:00,
2013-04-11 08:12:00,61.1,59.7,29.91,SSE,168,0.0,0.0,95,0.00,,,0.00,WeatherCatV1.02B4,2013-04-11 12:12:00,
2013-04-11 08:17:00,61.0,59.6,29.91,SSE,168,0.0,0.0,95,0.00,,,0.00,WeatherCatV1.02B4,2013-04-11 12:17:00,
2013-04-11 08:22:00,61.0,59.3,29.90,SSE,168,0.0,0.0,94,0.00,,,0.00,WeatherCatV1.02B4,2013-04-11 12:22:00,
2013-04-11 08:27:00,61.2,59.5,29.91,SSE,157,0.0,0.0,94,0.00,,,0.00,WeatherCatV1.02B4,2013-04-11 12:27:00,
2013-04-11 08:32:00,61.4,60.0,29.90,SSE,157,0.0,0.0,95,0.00,,,0.00,WeatherCatV1.02B4,2013-04-11 12:32:00,
2013-04-11 08:37:00,61.6,60.2,29.91,SSE,157,0.0,0.0,95,0.00,,,0.00,WeatherCatV1.02B4,2013-04-11 12:37:00,
2013-04-11 08:42:00,61.6,59.9,29.91,SSE,157,0.0,0.0,94,0.00,,,0.00,WeatherCatV1.02B4,2013-04-11 12:42:00,
2013-04-11 08:47:00,61.7,60.2,29.91,SSE,153,0.0,0.0,95,0.00,,,0.00,WeatherCatV1.02B4,2013-04-11 12:47:00,
2013-04-11 08:52:00,61.8,60.3,29.91,SSE,153,0.0,0.0,95,0.00,,,0.00,WeatherCatV1.02B4,2013-04-11 12:52:00,
2013-04-11 08:57:00,61.8,60.1,29.91,SE,134,0.0,4.0,94,0.00,,,0.00,WeatherCatV1.02B4,2013-04-11 12:57:00,
2013-04-11 09:02:00,61.9,60.4,29.91,SE,134,0.0,0.0,95,0.00,,,0.00,WeatherCatV1.02B4,2013-04-11 13:02:00,
2013-04-11 09:07:00,61.9,60.4,29.90,SE,133,0.0,0.0,95,0.00,,,0.00,WeatherCatV1.02B4,2013-04-11 13:07:00,
2013-04-11 09:12:00,62.0,60.5,29.90,SE,133,0.0,0.0,95,0.00,,,0.00,WeatherCatV1.02B4,2013-04-11 13:12:00,
2013-04-11 09:17:00,62.1,60.3,29.90,NNE,32,0.0,1.0,94,0.00,,,0.00,WeatherCatV1.02B4,2013-04-11 13:17:00,
2013-04-11 09:22:00,62.5,61.0,29.90,East,96,0.0,3.0,95,0.00,,,0.00,WeatherCatV1.02B4,2013-04-11 13:22:00,
2013-04-11 09:27:00,62.8,61.3,29.90,East,98,0.0,4.0,95,0.00,,,0.00,WeatherCatV1.02B4,2013-04-11 13:27:00,
2013-04-11 09:32:00,63.0,61.2,29.90,East,97,0.0,0.0,94,0.00,,,0.00,WeatherCatV1.02B4,2013-04-11 13:32:00,
2013-04-11 09:37:00,63.1,61.3,29.91,ENE,57,0.0,0.0,94,0.00,,,0.00,WeatherCatV1.02B4,2013-04-11 13:37:00,
2013-04-11 09:42:00,63.3,61.5,29.91,ENE,57,0.0,0.0,94,0.00,,,0.00,WeatherCatV1.02B4,2013-04-11 13:42:00,
2013-04-11 09:47:00,63.4,61.6,29.91,NE,51,0.0,1.0,94,0.00,,,0.00,WeatherCatV1.02B4,2013-04-11 13:47:00,
2013-04-11 09:52:00,63.6,61.8,29.92,East,97,0.0,3.0,94,0.00,,,0.00,WeatherCatV1.02B4,2013-04-11 13:52:00,
2013-04-11 09:57:00,63.9,61.8,29.92,NE,36,0.0,0.0,93,0.00,,,0.00,WeatherCatV1.02B4,2013-04-11 13:57:00,
2013-04-11 10:02:00,64.2,61.8,29.92,NNE,16,0.0,6.0,92,0.00,,,0.00,WeatherCatV1.02B4,2013-04-11 14:02:00,
2013-04-11 10:07:00,64.2,61.5,29.92,NE,35,0.0,4.0,91,0.00,,,0.00,WeatherCatV1.02B4,2013-04-11 14:07:00,
2013-04-11 10:12:00,64.4,61.7,29.92,NNE,18,2.0,5.0,91,0.00,,,0.00,WeatherCatV1.02B4,2013-04-11 14:12:00,
2013-04-11 10:17:00,64.4,61.4,29.92,NNE,18,0.0,9.0,90,0.00,,,0.00,WeatherCatV1.02B4,2013-04-11 14:17:00,
2013-04-11 10:23:00,64.6,61.3,29.92,North,10,5.0,8.0,89,0.00,,,0.00,WeatherCatV1.02B4,2013-04-11 14:23:00,
2013-04-11 10:28:00,64.6,61.3,29.93,ESE,117,2.0,4.0,89,0.00,,,0.00,WeatherCatV1.02B4,2013-04-11 14:28:00,
2013-04-11 10:33:00,64.7,61.1,29.93,NNE,27,4.0,7.0,88,0.00,,,0.00,WeatherCatV1.02B4,2013-04-11 14:33:00,
2013-04-11 10:38:00,64.5,60.5,29.93,NE,36,1.0,3.0,87,0.00,,,0.00,WeatherCatV1.02B4,2013-04-11 14:38:00,
2013-04-11 10:43:00,64.2,60.2,29.94,ENE,62,2.0,8.0,87,0.00,,,0.00,WeatherCatV1.02B4,2013-04-11 14:43:00,
2013-04-11 10:48:00,64.0,59.7,29.94,North,0,0.0,6.0,86,0.00,,,0.00,WeatherCatV1.02B4,2013-04-11 14:48:00,
2013-04-11 10:53:00,63.8,59.9,29.94,NNE,21,2.0,4.0,87,0.00,,,0.00,WeatherCatV1.02B4,2013-04-11 14:53:00,
2013-04-11 10:58:00,63.7,59.8,29.93,NNE,32,10.0,10.0,87,0.00,,,0.00,WeatherCatV1.02B4,2013-04-11 14:58:00,
2013-04-11 11:03:00,63.5,59.2,29.93,ENE,76,0.0,10.0,86,0.00,,,0.00,WeatherCatV1.02B4,2013-04-11 15:03:00,
2013-04-11 11:08:00,63.6,59.3,29.93,NNE,30,0.0,0.0,86,0.00,,,0.00,WeatherCatV1.02B4,2013-04-11 15:08:00,
2013-04-11 11:13:00,63.8,59.2,29.93,ENE,62,0.0,0.0,85,0.00,,,0.00,WeatherCatV1.02B4,2013-04-11 15:13:00,
2013-04-11 11:18:00,64.0,59.4,29.93,East,92,5.0,6.0,85,0.00,,,0.00,WeatherCatV1.02B4,2013-04-11 15:18:00,
2013-04-11 11:23:00,64.0,58.7,29.93,NNE,24,3.0,4.0,83,0.00,,,0.00,WeatherCatV1.02B4,2013-04-11 15:23:00,
2013-04-11 11:28:00,64.1,58.5,29.94,East,86,2.0,8.0,82,0.00,,,0.00,WeatherCatV1.02B4,2013-04-11 15:28:00,
2013-04-11 11:33:00,64.2,58.2,29.93,East,90,0.0,6.0,81,0.00,,,0.00,WeatherCatV1.02B4,2013-04-11 15:33:00,
2013-04-11 11:38:00,64.3,58.3,29.94,East,82,2.0,7.0,81,0.00,,,0.00,WeatherCatV1.02B4,2013-04-11 15:38:00,
2013-04-11 11:43:00,64.3,58.0,29.94,ENE,67,4.0,5.0,80,0.00,,,0.00,WeatherCatV1.02B4,2013-04-11 15:43:00,
2013-04-11 11:48:00,64.4,57.7,29.94,East,87,2.0,4.0,79,0.00,,,0.00,WeatherCatV1.02B4,2013-04-11 15:48:00,
2013-04-11 11:53:00,64.5,57.5,29.94,East,92,4.0,6.0,78,0.00,,,0.00,WeatherCatV1.02B4,2013-04-11 15:53:00,
2013-04-11 11:58:00,64.5,57.5,29.94,East,87,0.0,5.0,78,0.00,,,0.00,WeatherCatV1.02B4,2013-04-11 15:58:00,
2013-04-11 12:03:00,64.4,57.4,29.93,ENE,75,0.0,0.0,78,0.00,,,0.00,WeatherCatV1.02B4,2013-04-11 16:03:00,
2013-04-11 12:08:00,64.4,57.0,29.93,NE,35,3.0,4.0,77,0.00,,,0.00,WeatherCatV1.02B4,2013-04-11 16:08:00,
2013-04-11 12:13:00,64.2,56.8,29.93,North,9,7.0,8.0,77,0.00,,,0.00,WeatherCatV1.02B4,2013-04-11 16:13:00,
2013-04-11 12:18:00,63.5,56.5,29.93,NNE,31,5.0,12.0,78,0.00,,,0.00,WeatherCatV1.02B4,2013-04-11 16:18:00,
2013-04-11 12:23:00,63.1,56.5,29.94,NE,41,3.0,7.0,79,0.00,,,0.00,WeatherCatV1.02B4,2013-04-11 16:23:00,
2013-04-11 12:28:00,62.7,56.8,29.94,East,83,0.0,1.0,81,0.00,,,0.00,WeatherCatV1.02B4,2013-04-11 16:28:00,
2013-04-11 12:33:00,62.5,56.6,29.94,East,87,0.0,3.0,81,0.00,,,0.00,WeatherCatV1.02B4,2013-04-11 16:33:00,
2013-04-11 12:38:00,62.3,56.4,29.94,ENE,57,4.0,7.0,81,0.00,,,0.00,WeatherCatV1.02B4,2013-04-11 16:38:00,
2013-04-11 12:43:00,62.0,56.1,29.94,East,85,0.0,9.0,81,0.00,,,0.00,WeatherCatV1.02B4,2013-04-11 16:43:00,
2013-04-11 12:48:00,62.0,56.1,29.93,NNE,28,0.0,8.0,81,0.00,,,0.00,WeatherCatV1.02B4,2013-04-11 16:48:00,
2013-04-11 12:53:00,62.3,56.4,29.93,East,94,3.0,7.0,81,0.00,,,0.00,WeatherCatV1.02B4,2013-04-11 16:53:00,
2013-04-11 12:58:00,62.5,55.9,29.93,NE,52,0.0,10.0,79,0.00,,,0.00,WeatherCatV1.02B4,2013-04-11 16:58:00,
2013-04-11 13:03:00,62.8,56.2,29.93,ESE,123,2.0,10.0,79,0.00,,,0.00,WeatherCatV1.02B4,2013-04-11 17:03:00,
2013-04-11 13:08:00,63.1,55.4,29.94,NNE,21,0.0,6.0,76,0.00,,,0.00,WeatherCatV1.02B4,2013-04-11 17:08:00,
2013-04-11 13:13:00,63.2,55.1,29.94,East,79,0.0,8.0,75,0.00,,,0.00,WeatherCatV1.02B4,2013-04-11 17:13:00,
2013-04-11 13:18:00,63.2,54.8,29.94,ENE,75,3.0,12.0,74,0.00,,,0.00,WeatherCatV1.02B4,2013-04-11 17:18:00,
2013-04-11 13:23:00,63.1,54.3,29.94,ENE,57,2.0,7.0,73,0.00,,,0.00,WeatherCatV1.02B4,2013-04-11 17:23:00,
2013-04-11 13:28:00,63.3,54.5,29.94,ESE,105,0.0,10.0,73,0.00,,,0.00,WeatherCatV1.02B4,2013-04-11 17:28:00,
2013-04-11 13:33:00,63.4,54.2,29.94,East,96,2.0,6.0,72,0.00,,,0.00,WeatherCatV1.02B4,2013-04-11 17:33:00,
2013-04-11 13:38:00,63.5,53.9,29.94,East,98,7.0,7.0,71,0.00,,,0.00,WeatherCatV1.02B4,2013-04-11 17:38:00,
2013-04-11 13:43:00,63.6,54.0,29.94,ENE,70,4.0,9.0,71,0.00,,,0.00,WeatherCatV1.02B4,2013-04-11 17:43:00,
2013-04-11 13:48:00,63.7,53.7,29.93,East,100,3.0,8.0,70,0.00,,,0.00,WeatherCatV1.02B4,2013-04-11 17:48:00,
2013-04-11 13:53:00,63.8,53.0,29.93,NNE,22,3.0,12.0,68,0.00,,,0.00,WeatherCatV1.02B4,2013-04-11 17:53:00,
2013-04-11 13:58:00,63.7,52.9,29.93,East,85,4.0,11.0,68,0.00,,,0.00,WeatherCatV1.02B4,2013-04-11 17:58:00,
2013-04-11 14:03:00,63.6,52.8,29.93,ENE,78,0.0,7.0,68,0.00,,,0.00,WeatherCatV1.02B4,2013-04-11 18:03:00,
2013-04-11 14:08:00,63.7,52.9,29.93,East,89,6.0,6.0,68,0.00,,,0.00,WeatherCatV1.02B4,2013-04-11 18:08:00,
2013-04-11 14:13:00,64.0,52.8,29.92,East,82,5.0,6.0,67,0.00,,,0.00,WeatherCatV1.02B4,2013-04-11 18:13:00,
2013-04-11 14:18:00,64.2,52.6,29.92,East,82,5.0,11.0,66,0.00,,,0.00,WeatherCatV1.02B4,2013-04-11 18:18:00,
2013-04-11 14:23:00,64.1,52.5,29.92,East,89,8.0,10.0,66,0.00,,,0.00,WeatherCatV1.02B4,2013-04-11 18:23:00,
2013-04-11 14:28:00,64.1,52.5,29.92,ESE,118,3.0,8.0,66,0.00,,,0.00,WeatherCatV1.02B4,2013-04-11 18:28:00,
2013-04-11 14:33:00,64.0,52.0,29.92,ESE,118,3.0,11.0,65,0.00,,,0.00,WeatherCatV1.02B4,2013-04-11 18:33:00,
2013-04-11 14:38:00,63.8,51.8,29.92,ESE,107,3.0,9.0,65,0.00,,,0.00,WeatherCatV1.02B4,2013-04-11 18:38:00,
2013-04-11 14:43:00,63.4,51.0,29.92,NE,35,4.0,8.0,64,0.00,,,0.00,WeatherCatV1.02B4,2013-04-11 18:43:00,
2013-04-11 14:48:00,62.9,50.9,29.92,East,99,12.0,13.0,65,0.00,,,0.00,WeatherCatV1.02B4,2013-04-11 18:48:00,
2013-04-11 14:53:00,62.7,51.2,29.92,East,92,8.0,12.0,66,0.00,,,0.00,WeatherCatV1.02B4,2013-04-11 18:53:00,
2013-04-11 14:58:00,62.7,51.6,29.92,East,83,0.0,2.0,67,0.00,,,0.00,WeatherCatV1.02B4,2013-04-11 18:58:00,
2013-04-11 15:03:00,62.8,51.7,29.92,East,85,0.0,5.0,67,0.00,,,0.00,WeatherCatV1.02B4,2013-04-11 19:03:00,
2013-04-11 15:08:00,62.7,51.2,29.92,East,85,7.0,11.0,66,0.00,,,0.00,WeatherCatV1.02B4,2013-04-11 19:08:00,
2013-04-11 15:13:00,62.5,51.4,29.92,ESE,105,2.0,6.0,67,0.00,,,0.00,WeatherCatV1.02B4,2013-04-11 19:13:00,
2013-04-11 15:18:00,62.5,51.4,29.91,SSE,149,3.0,9.0,67,0.00,,,0.00,WeatherCatV1.02B4,2013-04-11 19:18:00,
2013-04-11 15:23:00,62.5,51.4,29.91,ENE,73,5.0,14.0,67,0.00,,,0.00,WeatherCatV1.02B4,2013-04-11 19:23:00,
2013-04-11 15:28:00,62.6,51.5,29.91,ESE,113,8.0,13.0,67,0.00,,,0.00,WeatherCatV1.02B4,2013-04-11 19:28:00,
2013-04-11 15:33:00,62.7,52.0,29.91,NE,52,5.0,13.0,68,0.00,,,0.00,WeatherCatV1.02B4,2013-04-11 19:33:00,
2013-04-11 15:38:00,62.7,51.6,29.91,ESE,111,0.0,8.0,67,0.00,,,0.00,WeatherCatV1.02B4,2013-04-11 19:38:00,
2013-04-11 15:43:00,62.5,51.4,29.92,ENE,63,3.0,12.0,67,0.00,,,0.00,WeatherCatV1.02B4,2013-04-11 19:43:00,
2013-04-11 15:48:00,62.3,52.0,29.92,NE,46,5.0,8.0,69,0.00,,,0.00,WeatherCatV1.02B4,2013-04-11 19:48:00,
2013-04-11 15:53:00,62.2,51.9,29.92,East,89,4.0,12.0,69,0.00,,,0.00,WeatherCatV1.02B4,2013-04-11 19:53:00,
2013-04-11 15:58:00,62.1,51.8,29.92,East,79,0.0,3.0,69,0.00,,,0.00,WeatherCatV1.02B4,2013-04-11 19:58:00,
2013-04-11 16:03:00,62.1,51.8,29.92,East,99,5.0,9.0,69,0.00,,,0.00,WeatherCatV1.02B4,2013-04-11 20:03:00,
2013-04-11 16:08:00,62.1,51.4,29.91,ESE,104,5.0,12.0,68,0.00,,,0.00,WeatherCatV1.02B4,2013-04-11 20:08:00,
2013-04-11 16:13:00,62.0,51.7,29.92,East,99,6.0,11.0,69,0.00,,,0.00,WeatherCatV1.02B4,2013-04-11 20:13:00,
2013-04-11 16:18:00,61.8,51.1,29.91,ESE,104,7.0,10.0,68,0.00,,,0.00,WeatherCatV1.02B4,2013-04-11 20:18:00,
2013-04-11 16:23:00,61.7,51.4,29.92,SSE,150,2.0,10.0,69,0.00,,,0.00,WeatherCatV1.02B4,2013-04-11 20:23:00,
2013-04-11 16:28:00,61.6,51.3,29.92,ESE,119,4.0,9.0,69,0.00,,,0.00,WeatherCatV1.02B4,2013-04-11 20:28:00,
2013-04-11 16:33:00,61.3,51.0,29.93,East,95,6.0,13.0,69,0.00,,,0.00,WeatherCatV1.02B4,2013-04-11 20:33:00,
2013-04-11 16:38:00,61.0,51.1,29.93,ESE,103,4.0,13.0,70,0.00,,,0.00,WeatherCatV1.02B4,2013-04-11 20:38:00,
2013-04-11 16:43:00,60.8,51.0,29.93,SE,126,3.0,14.0,70,0.00,,,0.00,WeatherCatV1.02B4,2013-04-11 20:43:00,
2013-04-11 16:48:00,60.6,50.8,29.93,SE,126,0.0,11.0,70,0.00,,,0.00,WeatherCatV1.02B4,2013-04-11 20:48:00,
2013-04-11 16:53:00,60.3,50.9,29.93,ESE,103,9.0,13.0,71,0.00,,,0.00,WeatherCatV1.02B4,2013-04-11 20:53:00,
2013-04-11 16:58:00,60.0,50.2,29.93,ESE,113,8.0,11.0,70,0.00,,,0.00,WeatherCatV1.02B4,2013-04-11 20:58:00,
2013-04-11 17:03:00,59.9,50.5,29.93,SE,137,6.0,6.0,71,0.00,,,0.00,WeatherCatV1.02B4,2013-04-11 21:03:00,
2013-04-11 17:08:00,59.7,49.9,29.92,ESE,108,3.0,12.0,70,0.00,,,0.00,WeatherCatV1.02B4,2013-04-11 21:08:00,
2013-04-11 17:13:00,59.5,49.7,29.93,East,92,10.0,16.0,70,0.00,,,0.00,WeatherCatV1.02B4,2013-04-11 21:13:00,
2013-04-11 17:18:00,59.4,49.2,29.93,East,80,5.0,10.0,69,0.00,,,0.00,WeatherCatV1.02B4,2013-04-11 21:18:00,
2013-04-11 17:23:00,59.2,49.0,29.93,ESE,119,4.0,8.0,69,0.00,,,0.00,WeatherCatV1.02B4,2013-04-11 21:23:00,
2013-04-11 17:28:00,59.0,48.8,29.93,East,95,11.0,11.0,69,0.00,,,0.00,WeatherCatV1.02B4,2013-04-11 21:28:00,
2013-04-11 17:33:00,59.0,48.5,29.93,SE,146,10.0,15.0,68,0.00,,,0.00,WeatherCatV1.02B4,2013-04-11 21:33:00,
2013-04-11 17:38:00,58.8,48.3,29.93,SE,146,7.0,14.0,68,0.00,,,0.00,WeatherCatV1.02B4,2013-04-11 21:38:00,
2013-04-11 17:44:00,58.4,48.3,29.93,ESE,111,9.0,14.0,69,0.00,,,0.00,WeatherCatV1.02B4,2013-04-11 21:44:00,
2013-04-11 17:49:00,58.1,48.0,29.93,ESE,119,8.0,12.0,69,0.00,,,0.00,WeatherCatV1.02B4,2013-04-11 21:49:00,
2013-04-11 17:54:00,57.9,47.8,29.93,SE,131,5.0,12.0,69,0.00,,,0.00,WeatherCatV1.02B4,2013-04-11 21:54:00,
2013-04-11 17:59:00,57.9,47.8,29.93,ESE,102,5.0,10.0,69,0.00,,,0.00,WeatherCatV1.02B4,2013-04-11 21:59:00,
2013-04-11 18:04:00,57.8,47.7,29.93,SE,140,10.0,11.0,69,0.00,,,0.00,WeatherCatV1.02B4,2013-04-11 22:04:00,
2013-04-11 18:09:00,57.7,47.6,29.94,East,98,7.0,18.0,69,0.00,,,0.00,WeatherCatV1.02B4,2013-04-11 22:09:00,
2013-04-11 18:14:00,57.5,47.4,29.94,East,82,5.0,14.0,69,0.00,,,0.00,WeatherCatV1.02B4,2013-04-11 22:14:00,
2013-04-11 18:19:00,57.5,47.8,29.94,East,84,3.0,9.0,70,0.00,,,0.00,WeatherCatV1.02B4,2013-04-11 22:19:00,
2013-04-11 18:24:00,57.4,47.7,29.94,ESE,116,8.0,13.0,70,0.00,,,0.00,WeatherCatV1.02B4,2013-04-11 22:24:00,
2013-04-11 18:29:00,57.0,47.3,29.94,ESE,109,6.0,12.0,70,0.00,,,0.00,WeatherCatV1.02B4,2013-04-11 22:29:00,
2013-04-11 18:34:00,56.7,47.0,29.95,SE,130,4.0,12.0,70,0.00,,,0.00,WeatherCatV1.02B4,2013-04-11 22:34:00,
2013-04-11 18:39:00,56.3,46.3,29.95,ESE,107,6.0,10.0,69,0.00,,,0.00,WeatherCatV1.02B4,2013-04-11 22:39:00,
2013-04-11 18:44:00,55.9,46.3,29.95,East,91,8.0,13.0,70,0.00,,,0.00,WeatherCatV1.02B4,2013-04-11 22:44:00,
2013-04-11 18:49:00,55.6,46.3,29.94,East,92,9.0,12.0,71,0.00,,,0.00,WeatherCatV1.02B4,2013-04-11 22:49:00,
2013-04-11 18:54:00,55.3,46.4,29.95,SE,125,3.0,8.0,72,0.00,,,0.00,WeatherCatV1.02B4,2013-04-11 22:54:00,
2013-04-11 18:59:00,55.1,46.2,29.95,ESE,121,5.0,12.0,72,0.00,,,0.00,WeatherCatV1.02B4,2013-04-11 22:59:00,
2013-04-11 19:04:00,54.8,45.9,29.95,ESE,112,7.0,14.0,72,0.00,,,0.00,WeatherCatV1.02B4,2013-04-11 23:04:00,
2013-04-11 19:09:00,54.6,46.1,29.95,SE,126,3.0,7.0,73,0.00,,,0.00,WeatherCatV1.02B4,2013-04-11 23:09:00,
2013-04-11 19:14:00,54.4,45.9,29.95,SE,129,7.0,8.0,73,0.00,,,0.00,WeatherCatV1.02B4,2013-04-11 23:14:00,
2013-04-11 19:19:00,54.2,45.7,29.94,SE,143,3.0,13.0,73,0.00,,,0.00,WeatherCatV1.02B4,2013-04-11 23:19:00,
2013-04-11 19:24:00,53.9,45.8,29.95,SE,128,12.0,13.0,74,0.00,,,0.00,WeatherCatV1.02B4,2013-04-11 23:24:00,
2013-04-11 19:29:00,53.7,45.6,29.95,East,87,9.0,10.0,74,0.00,,,0.00,WeatherCatV1.02B4,2013-04-11 23:29:00,
2013-04-11 19:34:00,53.4,45.3,29.95,ESE,108,10.0,14.0,74,0.00,,,0.00,WeatherCatV1.02B4,2013-04-11 23:34:00,
2013-04-11 19:39:00,53.2,45.5,29.95,ESE,106,6.0,13.0,75,0.00,,,0.00,WeatherCatV1.02B4,2013-04-11 23:39:00,
2013-04-11 19:44:00,53.1,45.4,29.95,East,98,5.0,8.0,75,0.00,,,0.00,WeatherCatV1.02B4,2013-04-11 23:44:00,
2013-04-11 19:49:00,52.9,45.2,29.95,ESE,112,4.0,8.0,75,0.00,,,0.00,WeatherCatV1.02B4,2013-04-11 23:49:00,
2013-04-11 19:54:00,52.7,45.3,29.94,ESE,114,7.0,11.0,76,0.00,,,0.00,WeatherCatV1.02B4,2013-04-11 23:54:00,
2013-04-11 19:59:00,52.5,45.2,29.94,SE,128,7.0,10.0,76,0.00,,,0.00,WeatherCatV1.02B4,2013-04-11 23:59:00,
2013-04-11 20:04:00,52.4,45.1,29.94,East,97,5.0,11.0,76,0.00,,,0.00,WeatherCatV1.02B4,2013-04-12 00:04:00,
2013-04-11 20:09:00,52.1,44.8,29.94,East,91,3.0,8.0,76,0.00,,,0.00,WeatherCatV1.02B4,2013-04-12 00:09:00,
2013-04-11 20:14:00,51.8,44.5,29.95,East,88,0.0,5.0,76,0.00,,,0.00,WeatherCatV1.02B4,2013-04-12 00:14:00,
2013-04-11 20:19:00,51.5,43.8,29.95,ESE,117,5.0,8.0,75,0.00,,,0.00,WeatherCatV1.02B4,2013-04-12 00:19:00,
2013-04-11 20:24:00,51.4,44.1,29.95,ESE,109,6.0,12.0,76,0.00,,,0.00,WeatherCatV1.02B4,2013-04-12 00:24:00,
2013-04-11 20:29:00,51.1,43.5,29.95,East,98,8.0,11.0,75,0.00,,,0.00,WeatherCatV1.02B4,2013-04-12 00:29:00,
2013-04-11 20:34:00,51.0,43.7,29.95,ESE,114,6.0,15.0,76,0.00,,,0.00,WeatherCatV1.02B4,2013-04-12 00:34:00,
2013-04-11 20:39:00,50.9,43.3,29.95,East,85,3.0,13.0,75,0.00,,,0.00,WeatherCatV1.02B4,2013-04-12 00:39:00,
2013-04-11 20:44:00,50.8,43.2,29.96,East,99,4.0,12.0,75,0.00,,,0.00,WeatherCatV1.02B4,2013-04-12 00:44:00,
2013-04-11 20:49:00,50.7,43.4,29.96,ESE,113,3.0,6.0,76,0.00,,,0.00,WeatherCatV1.02B4,2013-04-12 00:49:00,
2013-04-11 20:54:00,50.7,43.4,29.97,NE,54,8.0,9.0,76,0.00,,,0.00,WeatherCatV1.02B4,2013-04-12 00:54:00,
2013-04-11 20:59:00,50.6,43.3,29.96,East,93,4.0,15.0,76,0.00,,,0.00,WeatherCatV1.02B4,2013-04-12 00:59:00,
2013-04-11 21:04:00,50.6,43.3,29.96,East,96,4.0,9.0,76,0.00,,,0.00,WeatherCatV1.02B4,2013-04-12 01:04:00,
2013-04-11 21:09:00,50.6,43.3,29.97,ESE,103,0.0,9.0,76,0.00,,,0.00,WeatherCatV1.02B4,2013-04-12 01:09:00,
2013-04-11 21:14:00,50.5,43.2,29.96,ESE,111,3.0,8.0,76,0.00,,,0.00,WeatherCatV1.02B4,2013-04-12 01:14:00,
2013-04-11 21:19:00,50.5,43.2,29.97,ESE,117,2.0,12.0,76,0.00,,,0.00,WeatherCatV1.02B4,2013-04-12 01:19:00,
2013-04-11 21:24:00,50.5,43.2,29.97,SE,125,2.0,9.0,76,0.00,,,0.00,WeatherCatV1.02B4,2013-04-12 01:24:00,
2013-04-11 21:29:00,50.3,43.0,29.97,East,86,5.0,11.0,76,0.00,,,0.00,WeatherCatV1.02B4,2013-04-12 01:29:00,
2013-04-11 21:34:00,50.2,42.9,29.97,East,84,3.0,11.0,76,0.00,,,0.00,WeatherCatV1.02B4,2013-04-12 01:34:00,
2013-04-11 21:39:00,50.1,42.8,29.97,East,91,5.0,8.0,76,0.00,,,0.00,WeatherCatV1.02B4,2013-04-12 01:39:00,
2013-04-11 21:44:00,50.2,43.3,29.97,ESE,103,3.0,7.0,77,0.00,,,0.00,WeatherCatV1.02B4,2013-04-12 01:44:00,
2013-04-11 21:49:00,50.1,43.2,29.98,East,89,1.0,6.0,77,0.00,,,0.00,WeatherCatV1.02B4,2013-04-12 01:49:00,
2013-04-11 21:54:00,50.1,43.2,29.98,East,99,3.0,5.0,77,0.00,,,0.00,WeatherCatV1.02B4,2013-04-12 01:54:00,
2013-04-11 21:59:00,50.1,43.2,29.98,East,94,4.0,12.0,77,0.00,,,0.00,WeatherCatV1.02B4,2013-04-12 01:59:00,
2013-04-11 22:04:00,50.0,43.1,29.98,ESE,104,4.0,10.0,77,0.00,,,0.00,WeatherCatV1.02B4,2013-04-12 02:04:00,
2013-04-11 22:09:00,49.9,43.0,29.97,East,94,8.0,14.0,77,0.00,,,0.00,WeatherCatV1.02B4,2013-04-12 02:09:00,
2013-04-11 22:14:00,49.8,42.9,29.97,East,81,3.0,5.0,77,0.00,,,0.00,WeatherCatV1.02B4,2013-04-12 02:14:00,
2013-04-11 22:19:00,49.7,42.8,29.97,East,101,9.0,10.0,77,0.00,,,0.00,WeatherCatV1.02B4,2013-04-12 02:19:00,
2013-04-11 22:24:00,49.7,42.8,29.97,ESE,103,3.0,11.0,77,0.00,,,0.00,WeatherCatV1.02B4,2013-04-12 02:24:00,
2013-04-11 22:29:00,49.7,42.8,29.97,NE,49,4.0,8.0,77,0.00,,,0.00,WeatherCatV1.02B4,2013-04-12 02:29:00,
2013-04-11 22:34:00,49.6,42.7,29.97,NNE,28,6.0,9.0,77,0.00,,,0.00,WeatherCatV1.02B4,2013-04-12 02:34:00,
2013-04-11 22:39:00,49.6,42.7,29.97,East,88,9.0,13.0,77,0.00,,,0.00,WeatherCatV1.02B4,2013-04-12 02:39:00,
2013-04-11 22:44:00,49.6,42.7,29.97,East,84,3.0,9.0,77,0.00,,,0.00,WeatherCatV1.02B4,2013-04-12 02:44:00,
2013-04-11 22:49:00,49.5,42.6,29.96,East,83,3.0,11.0,77,0.00,,,0.00,WeatherCatV1.02B4,2013-04-12 02:49:00,
2013-04-11 22:54:00,49.5,42.6,29.95,NNE,27,1.0,8.0,77,0.00,,,0.00,WeatherCatV1.02B4,2013-04-12 02:54:00,
2013-04-11 22:59:00,49.4,42.8,29.95,East,86,4.0,10.0,78,0.00,,,0.00,WeatherCatV1.02B4,2013-04-12 02:59:00,
2013-04-11 23:04:00,49.3,42.4,29.95,East,96,6.0,11.0,77,0.00,,,0.00,WeatherCatV1.02B4,2013-04-12 03:04:00,
2013-04-11 23:09:00,49.3,42.4,29.95,ENE,59,8.0,8.0,77,0.00,,,0.00,WeatherCatV1.02B4,2013-04-12 03:09:00,
2013-04-11 23:14:00,49.2,42.3,29.95,NE,37,6.0,11.0,77,0.00,,,0.00,WeatherCatV1.02B4,2013-04-12 03:14:00,
2013-04-11 23:20:00,49.2,42.3,29.96,ENE,69,2.0,4.0,77,0.00,,,0.00,WeatherCatV1.02B4,2013-04-12 03:20:00,
2013-04-11 23:25:00,49.1,42.2,29.96,East,93,4.0,13.0,77,0.00,,,0.00,WeatherCatV1.02B4,2013-04-12 03:25:00,
2013-04-11 23:30:00,49.1,42.2,29.96,East,92,7.0,12.0,77,0.00,,,0.00,WeatherCatV1.02B4,2013-04-12 03:30:00,
2013-04-11 23:35:00,49.1,42.2,29.96,East,100,6.0,7.0,77,0.00,,,0.00,WeatherCatV1.02B4,2013-04-12 03:35:00,
2013-04-11 23:40:00,49.2,42.3,29.96,ESE,107,6.0,7.0,77,0.00,,,0.00,WeatherCatV1.02B4,2013-04-12 03:40:00,
2013-04-11 23:45:00,49.1,42.2,29.96,ESE,108,4.0,12.0,77,0.00,,,0.00,WeatherCatV1.02B4,2013-04-12 03:45:00,
2013-04-11 23:50:00,49.1,42.2,29.96,East,87,2.0,4.0,77,0.00,,,0.00,WeatherCatV1.02B4,2013-04-12 03:50:00,
2013-04-11 23:55:00,49.0,42.1,29.96,ESE,110,3.0,12.0,77,0.00,,,0.00,WeatherCatV1.02B4,2013-04-12 03:55:00,